Time;durP1;ratioP1;P1;durP2;ratioP2;P2;SDS_P1;SDS_P2;PMS_P1;PMS_P2;Temp;Humidity;BMP_temperature;BMP_pressure;BME280_temperature;BME280_humidity;BME280_pressure;Samples;Min_cycle;Max_cycle;Signal;HPM_P1;HPM_P2
2021/09/26 00:00:06;;;;;;;;;;;20.60;99.90;20.60;99488.00;;;;335163;29;95965;-93
2021/09/26 00:00:18;;;;;;;;;;;20.60;99.90;20.60;99488.00;;;;334766;29;91144;-93
2021/09/26 00:00:30;;;;;;;;;;;20.60;99.90;20.60;99488.00;;;;332492;29;95999;-93
2021/09/26 00:00:42;;;;;;;;;;;20.60;99.90;20.70;99483.00;;;;333608;29;91265;-92
2021/09/26 00:00:54;;;;;;;;;;;20.60;99.90;20.60;99491.00;;;;335079;29;95066;-93
2021/09/26 00:01:06;;;;;;;;;;;20.60;99.90;20.60;99485.00;;;;333588;29;91211;-94
2021/09/26 00:01:18;;;;;;;;;;;20.60;99.90;20.60;99492.00;;;;335159;29;94737;-93
2021/09/26 00:01:30;;;;;;;;;;;20.60;99.90;20.60;99482.00;;;;336211;28;91952;-93
2021/09/26 00:01:42;;;;;;;;;;;20.60;99.90;20.60;99488.00;;;;336463;28;95410;-93
2021/09/26 00:01:54;;;;;;;;;;;20.60;99.90;20.60;99480.00;;;;336086;28;91230;-93
2021/09/26 00:02:06;;;;;;;;;;;20.60;99.90;20.70;99490.00;;;;337731;28;95079;-93
2021/09/26 00:02:19;;;;;;;;;;;20.60;99.90;20.60;99479.00;;;;335960;28;92004;-93
2021/09/26 00:02:31;;;;;;;;;;;20.60;99.90;20.60;99489.00;;;;333728;29;93860;-93
2021/09/26 00:02:44;;;;;;;;;;;20.60;99.90;20.50;99485.00;;;;333286;29;90543;-93
2021/09/26 00:02:56;;;;;;;;;;;20.60;99.90;20.50;99485.00;;;;334997;29;93873;-93
2021/09/26 00:03:08;;;;;;;;;;;20.60;99.90;20.50;99487.00;;;;334664;29;92119;-93
2021/09/26 00:03:20;;;;;;;;;;;20.60;99.90;20.70;99494.00;;;;335002;29;94815;-93
2021/09/26 00:03:31;;;;;;;;;;;20.60;99.90;20.70;99494.00;;;;335979;28;91270;-93
2021/09/26 00:03:43;;;;;;;;;;;20.60;99.90;20.70;99494.00;;;;334902;29;94763;-94
2021/09/26 00:03:55;;;;;;;;;;;20.60;99.90;20.80;99498.00;;;;334744;29;91258;-93
2021/09/26 00:04:07;;;;;;;;;;;20.60;99.90;20.80;99494.00;;;;336416;28;95515;-93
2021/09/26 00:04:19;;;;;;;;;;;20.60;99.90;20.70;99492.00;;;;334660;29;92244;-94
2021/09/26 00:04:31;;;;;;;;;;;20.60;99.90;20.70;99496.00;;;;336308;28;96474;-94
2021/09/26 00:04:43;;;;;;;;;;;20.60;99.90;20.70;99493.00;;;;336241;28;90525;-93
2021/09/26 00:04:56;;;;;;;;;;;20.60;99.90;20.70;99487.00;;;;332559;29;94803;-93
2021/09/26 00:05:10;;;;;;;;;;;20.60;99.90;20.60;99496.00;;;;334790;29;92064;-94
2021/09/26 00:05:21;;;;;;;;;;;20.60;99.90;20.60;99495.00;;;;333984;29;95299;-93
2021/09/26 00:05:33;;;;;;;;;;;20.60;99.90;20.60;99492.00;;;;333484;29;91127;-94
2021/09/26 00:05:45;;;;;;;;;;;20.60;99.90;20.70;99493.00;;;;336344;28;95916;-94
2021/09/26 00:05:57;;;;;;;;;;;20.60;99.90;20.70;99501.00;;;;337452;28;91172;-93
2021/09/26 00:06:09;;;;;;;;;;;20.60;99.90;20.70;99496.00;;;;335168;29;95265;-94
2021/09/26 00:06:21;;;;;;;;;;;20.60;99.90;20.60;99493.00;;;;334587;29;92816;-94
2021/09/26 00:06:32;;;;;;;;;;;20.60;99.90;20.60;99499.00;;;;335156;29;94726;-94
2021/09/26 00:06:44;;;;;;;;;;;20.60;99.90;20.60;99500.00;;;;333503;29;91323;-94
2021/09/26 00:06:56;;;;;;;;;;;20.60;99.90;20.60;99501.00;;;;333842;29;95042;-94
2021/09/26 00:07:08;;;;;;;;;;;20.60;99.90;20.60;99506.00;;;;334861;29;92022;-94
2021/09/26 00:07:20;;;;;;;;;;;20.60;99.90;20.60;99499.00;;;;336418;28;94507;-93
2021/09/26 00:07:31;;;;;;;;;;;20.60;99.90;20.60;99502.00;;;;336122;28;92007;-94
2021/09/26 00:07:43;;;;;;;;;;;20.60;99.90;20.60;99500.00;;;;336121;28;96138;-94
2021/09/26 00:07:55;;;;;;;;;;;20.60;99.90;20.70;99507.00;;;;333586;29;91983;-94
2021/09/26 00:08:07;;;;;;;;;;;20.60;99.90;20.70;99499.00;;;;335105;29;94545;-95
2021/09/26 00:08:18;;;;;;;;;;;20.60;99.90;20.60;99500.00;;;;336005;28;91951;-94
2021/09/26 00:08:30;;;;;;;;;;;20.60;99.90;20.60;99500.00;;;;336330;28;95959;-94
2021/09/26 00:08:42;;;;;;;;;;;20.60;99.90;20.50;99507.00;;;;334957;29;91170;-94
2021/09/26 00:08:54;;;;;;;;;;;20.60;99.90;20.60;99506.00;;;;336291;28;94761;-94
2021/09/26 00:09:06;;;;;;;;;;;20.60;99.90;20.70;99507.00;;;;336110;28;92023;-94
2021/09/26 00:09:18;;;;;;;;;;;20.60;99.90;20.70;99510.00;;;;336449;28;94852;-94
2021/09/26 00:09:30;;;;;;;;;;;20.60;99.90;20.60;99509.00;;;;336117;28;91154;-94
2021/09/26 00:09:41;;;;;;;;;;;20.60;99.90;20.60;99505.00;;;;334995;29;95624;-94
2021/09/26 00:09:53;;;;;;;;;;;20.60;99.90;20.70;99505.00;;;;336175;28;91985;-94
2021/09/26 00:10:06;;;;;;;;;;;20.60;99.90;20.70;99507.00;;;;337766;28;95899;-94
2021/09/26 00:10:18;;;;;;;;;;;20.60;99.90;20.70;99507.00;;;;333334;29;91286;-94
2021/09/26 00:10:30;;;;;;;;;;;20.60;99.90;20.70;99510.00;;;;336403;28;96086;-94
2021/09/26 00:10:42;;;;;;;;;;;20.60;99.90;20.70;99513.00;;;;336136;28;91259;-94
2021/09/26 00:10:53;;;;;;;;;;;20.60;99.90;20.70;99511.00;;;;333854;29;93632;-95
2021/09/26 00:11:06;;;;;;;;;;;20.70;99.90;20.70;99511.00;;;;336145;28;91227;-94
2021/09/26 00:11:17;;;;;;;;;;;20.60;99.90;20.80;99511.00;;;;336384;28;94503;-94
2021/09/26 00:11:29;;;;;;;;;;;20.60;99.90;20.70;99507.00;;;;337621;28;91932;-94
2021/09/26 00:11:41;;;;;;;;;;;20.60;99.90;20.80;99503.00;;;;335220;29;95935;-94
2021/09/26 00:11:53;;;;;;;;;;;20.60;99.90;20.90;99510.00;;;;335119;29;92109;-94
2021/09/26 00:12:05;;;;;;;;;;;20.60;99.90;20.90;99506.00;;;;337942;28;95077;-94
2021/09/26 00:12:17;;;;;;;;;;;20.60;99.90;20.90;99512.00;;;;335066;29;91196;-95
2021/09/26 00:12:29;;;;;;;;;;;20.60;99.90;20.90;99506.00;;;;335223;29;96193;-94
2021/09/26 00:12:41;;;;;;;;;;;20.60;99.90;20.90;99504.00;;;;337703;28;91314;-94
2021/09/26 00:12:53;;;;;;;;;;;20.70;99.90;20.80;99501.00;;;;337916;28;94355;-94
2021/09/26 00:13:05;;;;;;;;;;;20.70;99.90;20.90;99501.00;;;;337569;28;92164;-94
2021/09/26 00:13:17;;;;;;;;;;;20.70;99.90;20.90;99505.00;;;;334063;29;94789;-94
2021/09/26 00:13:29;;;;;;;;;;;20.70;99.90;20.90;99499.00;;;;336509;28;91018;-94
2021/09/26 00:13:42;;;;;;;;;;;20.70;99.90;20.90;99500.00;;;;336661;28;95793;-94
2021/09/26 00:13:54;;;;;;;;;;;20.70;99.90;20.90;99491.00;;;;334898;29;91304;-94
2021/09/26 00:14:06;;;;;;;;;;;20.70;99.90;20.80;99497.00;;;;336704;28;94406;-94
2021/09/26 00:14:17;;;;;;;;;;;20.70;99.90;20.80;99498.00;;;;334920;28;92114;-94
2021/09/26 00:14:29;;;;;;;;;;;20.70;99.90;20.70;99496.00;;;;336320;28;94783;-94
2021/09/26 00:14:41;;;;;;;;;;;20.70;99.90;20.80;99488.00;;;;336319;28;91349;-94
2021/09/26 00:14:53;;;;;;;;;;;20.70;99.90;20.80;99491.00;;;;336573;28;95098;-95
2021/09/26 00:15:08;;;;;;;;;;;20.70;99.90;20.70;99494.00;;;;338761;28;92129;-93
2021/09/26 00:15:21;;;;;;;;;;;20.70;99.90;20.70;99486.00;;;;334058;29;96552;-93
2021/09/26 00:15:33;;;;;;;;;;;20.70;99.90;20.70;99488.00;;;;333870;29;91927;-96
2021/09/26 00:15:45;;;;;;;;;;;20.70;99.90;20.60;99480.00;;;;336625;28;95128;-94
2021/09/26 00:15:57;;;;;;;;;;;20.70;99.90;20.60;99483.00;;;;335175;29;91170;-94
2021/09/26 00:16:09;;;;;;;;;;;20.70;99.90;20.70;99485.00;;;;335251;29;95105;-95
2021/09/26 00:16:21;;;;;;;;;;;20.70;99.90;20.80;99480.00;;;;333780;29;91356;-95
2021/09/26 00:16:33;;;;;;;;;;;20.60;99.90;20.70;99484.00;;;;336598;28;94712;-94
2021/09/26 00:16:45;;;;;;;;;;;20.60;99.90;20.60;99470.00;;;;336422;28;91242;-94
2021/09/26 00:16:58;;;;;;;;;;;20.70;99.90;20.60;99466.00;;;;336602;28;93738;-94
2021/09/26 00:17:10;;;;;;;;;;;20.60;99.90;20.60;99469.00;;;;336350;28;91923;-94
2021/09/26 00:17:22;;;;;;;;;;;20.70;99.90;20.60;99468.00;;;;334993;29;96298;-94
2021/09/26 00:17:34;;;;;;;;;;;20.60;99.90;20.60;99465.00;;;;337795;28;91128;-94
2021/09/26 00:17:47;;;;;;;;;;;20.60;99.90;20.50;99471.00;;;;339339;28;92470;-95
2021/09/26 00:17:59;;;;;;;;;;;20.60;99.90;20.40;99464.00;;;;336377;28;91210;-94
2021/09/26 00:18:11;;;;;;;;;;;20.60;99.90;20.50;99464.00;;;;334095;29;94811;-94
2021/09/26 00:18:22;;;;;;;;;;;20.60;99.90;20.50;99470.00;;;;336168;28;91417;-94
2021/09/26 00:18:34;;;;;;;;;;;20.60;99.90;20.50;99460.00;;;;337797;28;96084;-95
2021/09/26 00:18:47;;;;;;;;;;;20.60;99.90;20.50;99467.00;;;;337669;28;91357;-94
2021/09/26 00:18:59;;;;;;;;;;;20.60;99.90;20.40;99468.00;;;;336625;28;94936;-95
2021/09/26 00:19:11;;;;;;;;;;;20.60;99.90;20.40;99471.00;;;;334990;29;92146;-94
2021/09/26 00:19:23;;;;;;;;;;;20.60;99.90;20.60;99468.00;;;;336596;28;96046;-94
2021/09/26 00:19:35;;;;;;;;;;;20.60;99.90;20.50;99471.00;;;;336374;28;91957;-94
2021/09/26 00:19:47;;;;;;;;;;;20.60;99.90;20.50;99466.00;;;;335345;29;94252;-94
2021/09/26 00:19:59;;;;;;;;;;;20.60;99.90;20.50;99467.00;;;;335138;29;91212;-93
2021/09/26 00:20:11;;;;;;;;;;;20.60;99.90;20.50;99463.00;;;;339272;28;95080;-95
2021/09/26 00:20:23;;;;;;;;;;;20.60;99.90;20.50;99467.00;;;;336003;28;92278;-94
2021/09/26 00:20:35;;;;;;;;;;;20.60;99.90;20.60;99466.00;;;;336686;28;94764;-95
2021/09/26 00:20:47;;;;;;;;;;;20.60;99.90;20.50;99468.00;;;;335123;29;91270;-94
2021/09/26 00:20:59;;;;;;;;;;;20.60;99.90;20.50;99468.00;;;;333938;29;95318;-94
2021/09/26 00:21:10;;;;;;;;;;;20.60;99.90;20.60;99471.00;;;;336298;28;92056;-94
2021/09/26 00:21:22;;;;;;;;;;;20.60;99.90;20.50;99467.00;;;;337984;28;93330;-94
2021/09/26 00:21:34;;;;;;;;;;;20.60;99.90;20.50;99470.00;;;;337694;28;92409;-93
2021/09/26 00:21:46;;;;;;;;;;;20.60;99.90;20.60;99469.00;;;;334009;29;96053;-94
2021/09/26 00:21:58;;;;;;;;;;;20.60;99.90;20.60;99466.00;;;;335098;29;92019;-94
2021/09/26 00:22:09;;;;;;;;;;;20.60;99.90;20.60;99472.00;;;;335225;29;95780;-93
2021/09/26 00:22:21;;;;;;;;;;;20.60;99.90;20.60;99476.00;;;;334797;29;92180;-94
2021/09/26 00:22:33;;;;;;;;;;;20.60;99.90;20.60;99468.00;;;;335181;29;96218;-93
2021/09/26 00:22:45;;;;;;;;;;;20.60;99.90;20.60;99475.00;;;;336440;28;90502;-94
2021/09/26 00:22:57;;;;;;;;;;;20.60;99.90;20.60;99471.00;;;;335189;29;94297;-94
2021/09/26 00:23:09;;;;;;;;;;;20.60;99.90;20.60;99470.00;;;;334971;29;92007;-94
2021/09/26 00:23:21;;;;;;;;;;;20.50;99.90;20.60;99478.00;;;;336498;28;95767;-93
2021/09/26 00:23:33;;;;;;;;;;;20.60;99.90;20.70;99476.00;;;;333319;29;92103;-94
2021/09/26 00:23:45;;;;;;;;;;;20.50;99.90;20.70;99475.00;;;;332520;29;96492;-94
2021/09/26 00:23:57;;;;;;;;;;;20.50;99.90;20.80;99478.00;;;;336276;28;91241;-94
2021/09/26 00:24:09;;;;;;;;;;;20.60;99.90;20.80;99479.00;;;;333959;29;95682;-94
2021/09/26 00:24:21;;;;;;;;;;;20.60;99.90;20.70;99481.00;;;;336195;28;92131;-94
2021/09/26 00:24:33;;;;;;;;;;;20.60;99.90;20.70;99483.00;;;;332556;29;94667;-94
2021/09/26 00:24:44;;;;;;;;;;;20.60;99.90;20.70;99484.00;;;;333660;29;91283;-94
2021/09/26 00:24:56;;;;;;;;;;;20.60;99.90;20.70;99479.00;;;;332652;29;93687;-94
2021/09/26 00:25:09;;;;;;;;;;;20.60;99.90;20.70;99480.00;;;;334988;29;91206;-94
2021/09/26 00:25:21;;;;;;;;;;;20.60;99.90;20.80;99482.00;;;;333896;29;96587;-95
2021/09/26 00:25:33;;;;;;;;;;;20.60;99.90;20.80;99472.00;;;;334999;29;92129;-94
2021/09/26 00:25:45;;;;;;;;;;;20.60;99.90;20.70;99478.00;;;;335153;29;95272;-93
2021/09/26 00:25:57;;;;;;;;;;;20.60;99.90;20.70;99472.00;;;;336217;28;92150;-94
2021/09/26 00:26:09;;;;;;;;;;;20.60;99.90;20.60;99471.00;;;;337955;28;93399;-95
2021/09/26 00:26:21;;;;;;;;;;;20.60;99.90;20.70;99474.00;;;;334726;28;92083;-94
2021/09/26 00:26:33;;;;;;;;;;;20.60;99.90;20.70;99468.00;;;;337670;28;94442;-94
2021/09/26 00:26:44;;;;;;;;;;;20.60;99.90;20.70;99485.00;;;;335842;28;90614;-94
2021/09/26 00:26:56;;;;;;;;;;;20.60;99.90;20.70;99484.00;;;;337556;28;94117;-94
2021/09/26 00:27:10;;;;;;;;;;;20.60;99.90;20.70;99488.00;;;;335006;29;92141;-94
2021/09/26 00:27:22;;;;;;;;;;;20.60;99.90;20.70;99489.00;;;;335117;29;95663;-94
2021/09/26 00:27:33;;;;;;;;;;;20.60;99.90;20.60;99478.00;;;;336253;28;92064;-95
2021/09/26 00:27:45;;;;;;;;;;;20.60;99.90;20.60;99491.00;;;;337887;28;94791;-94
2021/09/26 00:27:57;;;;;;;;;;;20.60;99.90;20.60;99487.00;;;;336204;28;92105;-94
2021/09/26 00:28:09;;;;;;;;;;;20.60;99.90;20.60;99495.00;;;;336563;28;95757;-94
2021/09/26 00:28:21;;;;;;;;;;;20.60;99.90;20.60;99503.00;;;;335939;28;92133;-95
2021/09/26 00:28:35;;;;;;;;;;;20.60;99.90;20.60;99496.00;;;;336628;28;94719;-95
2021/09/26 00:28:47;;;;;;;;;;;20.60;99.90;20.50;99491.00;;;;335106;29;90399;-95
2021/09/26 00:28:59;;;;;;;;;;;20.60;99.90;20.50;99501.00;;;;333916;29;93380;-94
2021/09/26 00:29:11;;;;;;;;;;;20.60;99.90;20.50;99498.00;;;;335182;29;91969;-94
2021/09/26 00:29:23;;;;;;;;;;;20.60;99.90;20.50;99502.00;;;;335126;29;94656;-94
2021/09/26 00:29:34;;;;;;;;;;;20.60;99.90;20.50;99498.00;;;;333780;29;91977;-94
2021/09/26 00:29:46;;;;;;;;;;;20.60;99.90;20.50;99506.00;;;;335289;29;96044;-94
2021/09/26 00:29:58;;;;;;;;;;;20.60;99.90;20.50;99498.00;;;;336275;28;91169;-94
2021/09/26 00:30:10;;;;;;;;;;;20.60;99.90;20.50;99505.00;;;;335290;29;95758;-94
2021/09/26 00:30:22;;;;;;;;;;;20.50;99.90;20.50;99497.00;;;;335227;28;91292;-94
2021/09/26 00:30:34;;;;;;;;;;;20.50;99.90;20.50;99499.00;;;;335347;29;94489;-94
2021/09/26 00:30:46;;;;;;;;;;;20.60;99.90;20.50;99496.00;;;;334873;29;90424;-94
2021/09/26 00:30:58;;;;;;;;;;;20.50;99.90;20.50;99497.00;;;;333998;29;94087;-94
2021/09/26 00:31:10;;;;;;;;;;;20.50;99.90;20.50;99501.00;;;;335058;29;92165;-94
2021/09/26 00:31:22;;;;;;;;;;;20.50;99.90;20.50;99500.00;;;;335282;29;96266;-94
2021/09/26 00:31:33;;;;;;;;;;;20.50;99.90;20.50;99494.00;;;;335068;29;92012;-95
2021/09/26 00:31:45;;;;;;;;;;;20.50;99.90;20.50;99495.00;;;;335238;29;96307;-95
2021/09/26 00:31:57;;;;;;;;;;;20.50;99.90;20.60;99502.00;;;;334834;29;92081;-94
2021/09/26 00:32:10;;;;;;;;;;;20.50;99.90;20.60;99493.00;;;;335266;29;93848;-95
2021/09/26 00:32:22;;;;;;;;;;;20.50;99.90;20.60;99487.00;;;;335125;29;91220;-94
2021/09/26 00:32:34;;;;;;;;;;;20.50;99.90;20.50;99494.00;;;;332731;29;94550;-95
2021/09/26 00:32:46;;;;;;;;;;;20.50;99.90;20.50;99499.00;;;;335155;29;90284;-95
2021/09/26 00:32:58;;;;;;;;;;;20.50;99.90;20.60;99496.00;;;;334003;29;94813;-94
2021/09/26 00:33:09;;;;;;;;;;;20.50;99.90;20.70;99497.00;;;;333733;29;91264;-96
2021/09/26 00:33:21;;;;;;;;;;;20.50;99.90;20.60;99499.00;;;;335400;28;96179;-95
2021/09/26 00:33:33;;;;;;;;;;;20.50;99.90;20.60;99499.00;;;;336253;28;92115;-95
2021/09/26 00:33:45;;;;;;;;;;;20.60;99.90;20.70;99501.00;;;;336555;28;94915;-95
2021/09/26 00:33:57;;;;;;;;;;;20.50;99.90;20.70;99492.00;;;;335099;29;91944;-95
2021/09/26 00:34:09;;;;;;;;;;;20.50;99.90;20.60;99496.00;;;;333933;29;95492;-95
2021/09/26 00:34:20;;;;;;;;;;;20.50;99.90;20.60;99492.00;;;;336359;28;91938;-94
2021/09/26 00:34:32;;;;;;;;;;;20.50;99.90;20.60;99493.00;;;;336534;28;95839;-96
2021/09/26 00:34:44;;;;;;;;;;;20.50;99.90;20.60;99496.00;;;;333760;29;91339;-94
2021/09/26 00:34:56;;;;;;;;;;;20.50;99.90;20.60;99498.00;;;;335381;29;94434;-95
2021/09/26 00:35:08;;;;;;;;;;;20.50;99.90;20.60;99506.00;;;;336340;28;92021;-94
2021/09/26 00:35:21;;;;;;;;;;;20.50;99.90;20.70;99498.00;;;;334109;29;95840;-95
2021/09/26 00:35:32;;;;;;;;;;;20.50;99.90;20.70;99504.00;;;;336337;28;92063;-95
2021/09/26 00:35:44;;;;;;;;;;;20.50;99.90;20.80;99502.00;;;;335147;29;95203;-94
2021/09/26 00:35:56;;;;;;;;;;;20.60;99.90;20.80;99495.00;;;;335065;29;92058;-95
2021/09/26 00:36:08;;;;;;;;;;;20.50;99.90;20.80;99507.00;;;;337941;28;94889;-95
2021/09/26 00:36:20;;;;;;;;;;;20.60;99.90;20.70;99504.00;;;;336205;28;91290;-95
2021/09/26 00:36:32;;;;;;;;;;;20.50;99.90;20.70;99501.00;;;;335211;29;96013;-95
2021/09/26 00:36:43;;;;;;;;;;;20.60;99.90;20.70;99500.00;;;;336233;28;91342;-95
2021/09/26 00:36:55;;;;;;;;;;;20.50;99.90;20.60;99506.00;;;;335344;29;93507;-95
2021/09/26 00:37:07;;;;;;;;;;;20.50;99.90;20.50;99501.00;;;;335099;29;91212;-95
2021/09/26 00:37:20;;;;;;;;;;;20.50;99.90;20.40;99502.00;;;;335397;29;95165;-95
2021/09/26 00:37:31;;;;;;;;;;;20.50;99.90;20.30;99502.00;;;;333716;29;91985;-95
2021/09/26 00:37:44;;;;;;;;;;;20.50;99.90;20.40;99506.00;;;;336575;28;94341;-95
2021/09/26 00:37:56;;;;;;;;;;;20.50;99.90;20.50;99504.00;;;;336388;28;91136;-95
2021/09/26 00:38:08;;;;;;;;;;;20.50;99.90;20.50;99499.00;;;;334037;29;96188;-95
2021/09/26 00:38:21;;;;;;;;;;;20.50;99.90;20.50;99511.00;;;;334394;29;92108;-95
2021/09/26 00:38:33;;;;;;;;;;;20.50;99.90;20.60;99505.00;;;;335208;29;92353;-95
2021/09/26 00:38:45;;;;;;;;;;;20.50;99.90;20.70;99511.00;;;;335065;29;91230;-95
2021/09/26 00:38:57;;;;;;;;;;;20.50;99.90;20.70;99510.00;;;;333977;29;92377;-95
2021/09/26 00:39:09;;;;;;;;;;;20.50;99.90;20.70;99509.00;;;;336147;28;92081;-95
2021/09/26 00:39:20;;;;;;;;;;;20.50;99.90;20.70;99516.00;;;;336392;28;95131;-94
2021/09/26 00:39:32;;;;;;;;;;;20.50;99.90;20.70;99507.00;;;;336321;28;91976;-95
2021/09/26 00:39:44;;;;;;;;;;;20.50;99.90;20.50;99508.00;;;;335096;29;96284;-94
2021/09/26 00:39:56;;;;;;;;;;;20.50;99.90;20.60;99502.00;;;;333735;29;92021;-94
2021/09/26 00:40:08;;;;;;;;;;;20.50;99.90;20.60;99500.00;;;;336581;28;95076;-95
2021/09/26 00:40:20;;;;;;;;;;;20.50;99.90;20.60;99505.00;;;;337596;28;91889;-95
2021/09/26 00:40:32;;;;;;;;;;;20.50;99.90;20.50;99501.00;;;;335167;29;96034;-95
2021/09/26 00:40:48;;;;;;;;;;;20.50;99.90;20.50;99500.00;;;;335112;29;91222;-95
2021/09/26 00:40:59;;;;;;;;;;;20.50;99.90;20.60;99505.00;;;;336551;28;95094;-95
2021/09/26 00:41:11;;;;;;;;;;;20.50;99.90;20.60;99507.00;;;;334902;29;92091;-95
2021/09/26 00:41:23;;;;;;;;;;;20.50;99.90;20.60;99508.00;;;;337455;28;96271;-95
2021/09/26 00:41:35;;;;;;;;;;;20.50;99.90;20.50;99500.00;;;;334474;29;92034;-94
2021/09/26 00:41:48;;;;;;;;;;;20.50;99.90;20.60;99507.00;;;;336389;28;94852;-95
2021/09/26 00:42:00;;;;;;;;;;;20.50;99.90;20.60;99504.00;;;;336215;28;92103;-95
2021/09/26 00:42:12;;;;;;;;;;;20.50;99.90;20.70;99507.00;;;;335338;29;93080;-94
2021/09/26 00:42:24;;;;;;;;;;;20.50;99.90;20.70;99515.00;;;;332877;29;92046;-95
2021/09/26 00:42:36;;;;;;;;;;;20.50;99.90;20.60;99505.00;;;;336506;28;95307;-94
2021/09/26 00:42:47;;;;;;;;;;;20.50;99.90;20.60;99508.00;;;;334982;29;91277;-95
2021/09/26 00:42:59;;;;;;;;;;;20.50;99.90;20.70;99513.00;;;;335259;29;93503;-94
2021/09/26 00:43:11;;;;;;;;;;;20.50;99.90;20.60;99513.00;;;;335048;29;92438;-94
2021/09/26 00:43:23;;;;;;;;;;;20.50;99.90;20.60;99510.00;;;;336419;28;94922;-95
2021/09/26 00:43:37;;;;;;;;;;;20.50;99.90;20.60;99509.00;;;;336329;28;91977;-94
2021/09/26 00:43:49;;;;;;;;;;;20.50;99.90;20.60;99518.00;;;;336472;28;95548;-95
2021/09/26 00:44:01;;;;;;;;;;;20.50;99.90;20.60;99510.00;;;;337662;28;91991;-95
2021/09/26 00:44:12;;;;;;;;;;;20.50;99.90;20.60;99516.00;;;;336536;28;96003;-95
2021/09/26 00:44:24;;;;;;;;;;;20.50;99.90;20.40;99523.00;;;;335689;28;92253;-94
2021/09/26 00:44:36;;;;;;;;;;;20.50;99.90;20.40;99514.00;;;;335074;29;95544;-95
2021/09/26 00:44:48;;;;;;;;;;;20.50;99.90;20.40;99518.00;;;;334920;29;91299;-95
2021/09/26 00:45:00;;;;;;;;;;;20.50;99.90;20.40;99518.00;;;;335073;29;94355;-95
2021/09/26 00:45:12;;;;;;;;;;;20.50;99.90;20.50;99516.00;;;;334848;29;92076;-95
2021/09/26 00:45:24;;;;;;;;;;;20.50;99.90;20.50;99520.00;;;;333855;29;95944;-95
2021/09/26 00:45:36;;;;;;;;;;;20.50;99.90;20.60;99520.00;;;;336461;28;91910;-95
2021/09/26 00:45:47;;;;;;;;;;;20.50;99.90;20.60;99512.00;;;;337780;28;95842;-95
2021/09/26 00:45:59;;;;;;;;;;;20.50;99.90;20.60;99522.00;;;;336359;28;92081;-95
2021/09/26 00:46:11;;;;;;;;;;;20.50;99.90;20.60;99519.00;;;;336564;28;94686;-95
2021/09/26 00:46:23;;;;;;;;;;;20.50;99.90;20.50;99517.00;;;;336246;28;91253;-95
2021/09/26 00:46:35;;;;;;;;;;;20.50;99.90;20.60;99520.00;;;;336597;28;95846;-95
2021/09/26 00:46:47;;;;;;;;;;;20.50;99.90;20.60;99519.00;;;;335140;29;90478;-95
2021/09/26 00:46:59;;;;;;;;;;;20.50;99.90;20.60;99519.00;;;;335299;29;95151;-95
2021/09/26 00:47:11;;;;;;;;;;;20.50;99.90;20.70;99519.00;;;;337587;28;91252;-95
2021/09/26 00:47:22;;;;;;;;;;;20.50;99.90;20.70;99516.00;;;;335988;28;95619;-96
2021/09/26 00:47:34;;;;;;;;;;;20.50;99.90;20.60;99515.00;;;;337535;28;92137;-95
2021/09/26 00:47:47;;;;;;;;;;;20.50;99.90;20.70;99518.00;;;;336380;28;95078;-95
2021/09/26 00:47:59;;;;;;;;;;;20.50;99.90;20.60;99514.00;;;;334954;29;91199;-95
2021/09/26 00:48:10;;;;;;;;;;;20.50;99.90;20.60;99518.00;;;;336551;28;95529;-94
2021/09/26 00:48:22;;;;;;;;;;;20.50;99.90;20.60;99520.00;;;;337079;28;92209;-95
2021/09/26 00:48:38;;;;;;;;;;;20.50;99.90;20.50;99524.00;;;;332640;29;94655;-94
2021/09/26 00:48:50;;;;;;;;;;;20.50;99.90;20.50;99519.00;;;;335087;29;91271;-95
2021/09/26 00:49:02;;;;;;;;;;;20.50;99.90;20.60;99518.00;;;;336460;28;94856;-95
2021/09/26 00:49:14;;;;;;;;;;;20.50;99.90;20.70;99520.00;;;;336281;28;91178;-95
2021/09/26 00:49:26;;;;;;;;;;;20.50;99.90;20.70;99521.00;;;;333909;29;95846;-95
2021/09/26 00:49:38;;;;;;;;;;;20.50;99.90;20.70;99515.00;;;;334990;29;91935;-94
2021/09/26 00:49:50;;;;;;;;;;;20.50;99.90;20.70;99525.00;;;;335266;29;92615;-95
2021/09/26 00:50:03;;;;;;;;;;;20.50;99.90;20.70;99520.00;;;;334964;29;91997;-95
2021/09/26 00:50:15;;;;;;;;;;;20.50;99.90;20.60;99510.00;;;;336647;28;94113;-94
2021/09/26 00:50:28;;;;;;;;;;;20.50;99.90;20.60;99523.00;;;;334525;29;92220;-95
2021/09/26 00:50:40;;;;;;;;;;;20.50;99.90;20.60;99518.00;;;;335113;29;95015;-95
2021/09/26 00:50:52;;;;;;;;;;;20.50;99.90;20.60;99525.00;;;;333603;29;91277;-95
2021/09/26 00:51:10;;;;;;;;;;;20.50;99.90;20.60;99517.00;;;;335331;29;93736;-95
2021/09/26 00:51:22;;;;;;;;;;;20.50;99.90;20.60;99527.00;;;;336020;28;92123;-95
2021/09/26 00:51:33;;;;;;;;;;;20.50;99.90;20.60;99521.00;;;;335256;29;95532;-95
2021/09/26 00:51:45;;;;;;;;;;;20.50;99.90;20.60;99525.00;;;;336307;28;91267;-94
2021/09/26 00:51:58;;;;;;;;;;;20.50;99.90;20.70;99519.00;;;;335263;29;95846;-94
2021/09/26 00:52:10;;;;;;;;;;;20.50;99.90;20.60;99526.00;;;;333713;29;92088;-95
2021/09/26 00:52:22;;;;;;;;;;;20.50;99.90;20.70;99525.00;;;;332617;29;95099;-96
2021/09/26 00:52:36;;;;;;;;;;;20.50;99.90;20.70;99522.00;;;;332498;29;91182;-96
2021/09/26 00:52:48;;;;;;;;;;;20.50;99.90;20.70;99530.00;;;;336584;28;94939;-96
2021/09/26 00:53:00;;;;;;;;;;;20.50;99.90;20.70;99524.00;;;;334961;29;91332;-95
2021/09/26 00:53:12;;;;;;;;;;;20.50;99.90;20.70;99522.00;;;;335248;29;94222;-96
2021/09/26 00:53:25;;;;;;;;;;;20.50;99.90;20.70;99527.00;;;;337184;28;91371;-96
2021/09/26 00:53:40;;;;;;;;;;;20.50;99.90;20.70;99526.00;;;;337549;28;95968;-95
2021/09/26 00:53:52;;;;;;;;;;;20.50;99.90;20.70;99526.00;;;;336268;28;92049;-94
2021/09/26 00:54:04;;;;;;;;;;;20.50;99.90;20.70;99534.00;;;;335292;29;94667;-94
2021/09/26 00:54:16;;;;;;;;;;;20.50;99.90;20.70;99528.00;;;;334948;29;91244;-95
2021/09/26 00:54:28;;;;;;;;;;;20.50;99.90;20.80;99522.00;;;;337454;28;95965;-94
2021/09/26 00:54:41;;;;;;;;;;;20.60;99.90;20.70;99523.00;;;;334818;29;92137;-94
2021/09/26 00:54:53;;;;;;;;;;;20.50;99.90;20.70;99520.00;;;;335191;29;95788;-95
2021/09/26 00:55:05;;;;;;;;;;;20.60;99.90;20.70;99523.00;;;;333648;29;91384;-94
2021/09/26 00:55:17;;;;;;;;;;;20.60;99.90;20.70;99525.00;;;;335280;29;95522;-94
2021/09/26 00:55:31;;;;;;;;;;;20.60;99.90;20.60;99521.00;;;;336231;28;92077;-95
2021/09/26 00:55:43;;;;;;;;;;;20.60;99.90;20.70;99521.00;;;;336481;28;94691;-94
2021/09/26 00:55:56;;;;;;;;;;;20.60;99.90;20.70;99513.00;;;;335087;29;91977;-94
2021/09/26 00:56:08;;;;;;;;;;;20.60;99.90;20.80;99517.00;;;;335335;29;94885;-94
2021/09/26 00:56:20;;;;;;;;;;;20.50;99.90;20.70;99522.00;;;;334507;29;92002;-94
2021/09/26 00:56:32;;;;;;;;;;;20.50;99.90;20.70;99520.00;;;;334048;29;95589;-94
2021/09/26 00:56:47;;;;;;;;;;;20.50;99.90;20.60;99511.00;;;;335052;29;91197;-95
2021/09/26 00:56:59;;;;;;;;;;;20.50;99.90;20.60;99513.00;;;;333952;29;94777;-94
2021/09/26 00:57:11;;;;;;;;;;;20.60;99.90;20.50;99513.00;;;;333667;29;91472;-94
2021/09/26 00:57:23;;;;;;;;;;;20.50;99.90;20.50;99510.00;;;;334118;29;93073;-94
2021/09/26 00:57:35;;;;;;;;;;;20.50;99.90;20.50;99519.00;;;;333687;29;92070;-94
2021/09/26 00:57:47;;;;;;;;;;;20.50;99.90;20.60;99517.00;;;;336496;28;93145;-94
2021/09/26 00:57:59;;;;;;;;;;;20.50;99.90;20.70;99510.00;;;;337416;28;92080;-94
2021/09/26 00:58:10;;;;;;;;;;;20.50;99.90;20.70;99511.00;;;;336592;28;95614;-94
2021/09/26 00:58:23;;;;;;;;;;;20.50;99.90;20.70;99508.00;;;;337435;28;92157;-95
2021/09/26 00:58:36;;;;;;;;;;;20.50;99.90;20.70;99510.00;;;;336565;28;94603;-94
2021/09/26 00:58:49;;;;;;;;;;;20.50;99.90;20.70;99507.00;;;;337545;28;92036;-94
2021/09/26 00:59:01;;;;;;;;;;;20.50;99.90;20.80;99509.00;;;;337766;28;95561;-94
2021/09/26 00:59:16;;;;;;;;;;;20.50;99.90;20.80;99506.00;;;;334984;29;91401;-94
2021/09/26 00:59:28;;;;;;;;;;;20.60;99.90;20.80;99510.00;;;;333384;29;93315;-94
2021/09/26 00:59:40;;;;;;;;;;;20.60;99.90;20.70;99504.00;;;;335959;28;92131;-95
2021/09/26 00:59:52;;;;;;;;;;;20.60;99.90;20.70;99494.00;;;;335199;29;96072;-94